Time;durP1;ratioP1;P1;durP2;ratioP2;P2;SDS_P1;SDS_P2;PMS_P1;PMS_P2;Temp;Humidity;BMP_temperature;BMP_pressure;BME280_temperature;BME280_humidity;BME280_pressure;Samples;Min_cycle;Max_cycle;Signal;HPM_P1;HPM_P2
2023/11/30 16:58:44;;;;;;;;;;;;;;;;;;6197982;22;2446388;-79
2023/11/30 17:01:10;;;;;;;;;;;;;;;;;;6277556;22;19915;-80
2023/11/30 17:03:35;;;;;;;;;;;;;;;;;;6277987;22;19917;-80
2023/11/30 17:06:01;;;;;;;;;;;;;;;;;;6278388;22;20230;-81
2023/11/30 17:08:26;;;;;;;;;;;;;;;;;;6278304;22;19911;-78
2023/11/30 17:10:52;;;;;;;;;;;;;;;;;;6278361;22;19911;-79
2023/11/30 17:13:18;;;;;;;;;;;;;;;;;;6278024;22;19912;-80
2023/11/30 17:15:43;;;;;;;;;;;;;;;;;;6278064;22;20015;-79
2023/11/30 17:18:08;;;;;;;;;;;;;;;;;;6278454;22;19918;-80
2023/11/30 17:20:34;;;;;;;;;;;;;;;;;;6278503;22;19922;-80
2023/11/30 17:22:59;;;;;;;;;;;;;;;;;;6277046;22;20239;-81
2023/11/30 17:25:24;;;;;;;;;;;;;;;;;;6278584;22;19911;-79
2023/11/30 17:27:50;;;;;;;;;;;;;;;;;;6278309;22;19919;-82
2023/11/30 17:30:15;;;;;;;;;;;;;;;;;;6278387;22;20293;-80
2023/11/30 17:32:40;;;;;;;;;;;;;;;;;;6278223;22;19911;-80
2023/11/30 17:35:06;;;;;;;;;;;;;;;;;;6278137;22;19911;-83
2023/11/30 17:37:31;;;;;;;;;;;;;;;;;;6276503;22;19998;-79
2023/11/30 17:39:57;;;;;;;;;;;;;;;;;;6278326;22;19938;-83
2023/11/30 17:42:22;;;;;;;;;;;;;;;;;;6278372;22;20342;-85
2023/11/30 17:44:47;;;;;;;;;;;;;;;;;;6278023;22;19911;-79
2023/11/30 17:47:15;;;;;;;;;;;;;;;;;;6278452;22;19990;-81
2023/11/30 17:49:41;;;;;;;;;;;;;;;;;;6278099;22;19912;-80
2023/11/30 17:52:06;;;;;;;;;;;;;;;;;;6278254;22;19994;-79
2023/11/30 17:54:31;;;;;;;;;;;;;;;;;;6276212;22;19998;-82
2023/11/30 17:56:58;;;;;;;;;;;;;;;;;;6278324;22;19943;-80
2023/11/30 17:59:24;;;;;;;;;;;;;;;;;;6294137;22;19921;-80
2023/11/30 18:01:49;;;;;;;;;;;;;;;;;;6309736;22;19911;-81
2023/11/30 18:04:14;;;;;;;;;;;;;;;;;;6309172;22;20005;-81
2023/11/30 18:06:39;;;;;;;;;;;;;;;;;;6309289;22;20309;-84
2023/11/30 18:09:05;;;;;;;;;;;;;;;;;;6309548;22;19985;-81
2023/11/30 18:11:30;;;;;;;;;;;;;;;;;;6308825;22;19937;-79
2023/11/30 18:13:55;;;;;;;;;;;;;;;;;;6281535;22;19911;-83
2023/11/30 18:16:21;;;;;;;;;;;;;;;;;;6308928;22;20245;-85
2023/11/30 18:18:46;;;;;;;;;;;;;;;;;;6309262;22;19917;-82
2023/11/30 18:21:12;;;;;;;;;;;;;;;;;;6282139;22;19972;-86
2023/11/30 18:23:37;;;;;;;;;;;;;;;;;;6309413;22;19918;-82
2023/11/30 18:26:03;;;;;;;;;;;;;;;;;;6308642;22;19911;-81
2023/11/30 18:28:28;;;;;;;;;;;;;;;;;;6309076;22;20363;-83
2023/11/30 18:30:53;;;;;;;;;;;;;;;;;;6308728;22;19921;-80
2023/11/30 18:33:20;;;;;;;;;;;;;;;;;;6308517;22;20026;-82
2023/11/30 18:35:46;;;;;;;;;;;;;;;;;;6308623;22;19917;-80
2023/11/30 18:38:11;;;;;;;;;;;;;;;;;;6308942;22;19935;-80
2023/11/30 18:40:38;;;;;;;15.20;9.80;;;;;;;;;;6281352;22;20284;-82
2023/11/30 18:43:04;;;;;;;13.52;9.30;;;;;;;;;;6280500;22;20048;-81
2023/11/30 18:45:29;;;;;;;11.48;8.85;;;;;;;;;;6308139;22;20086;-83
2023/11/30 18:47:55;;;;;;;12.80;8.50;;;;;;;;;;6308914;22;20370;-89
2023/11/30 18:50:20;;;;;;;10.63;8.32;;;;;;;;;;6309016;22;20003;-87
2023/11/30 18:52:47;;;;;;;11.82;8.30;;;;;;;;;;6308812;22;20003;-87
2023/11/30 18:55:13;;;;;;;11.40;8.05;;;;;;;;;;6309105;22;20436;-88
2023/11/30 18:57:38;;;;;;;29.27;17.55;;;;;;;;;;6281350;22;20034;-89
2023/11/30 19:00:05;;;;;;;21.92;14.80;;;;;;;;;;6309116;22;20018;-85
2023/11/30 19:02:31;;;;;;;24.92;18.48;;;;;;;;;;6284857;22;19995;-88
2023/11/30 19:04:57;;;;;;;25.30;17.95;;;;;;;;;;6284874;22;20049;-86
2023/11/30 19:07:23;;;;;;;25.63;17.98;;;;;;;;;;6311836;22;20018;-83
2023/11/30 19:09:50;;;;;;;24.23;16.85;;;;;;;;;;6311447;22;20027;-84
2023/11/30 19:12:16;;;;;;;22.63;17.30;;;;;;;;;;6281987;22;20007;-83
2023/11/30 19:14:41;;;;;;;25.30;16.35;;;;;;;;;;6309179;22;20011;-83
2023/11/30 19:17:08;;;;;;;23.20;16.00;;;;;;;;;;6281145;22;20086;-81
2023/11/30 19:19:33;;;;;;;24.10;18.60;;;;;;;;;;6308204;22;20009;-85
2023/11/30 19:21:59;;;;;;;26.15;17.65;;;;;;;;;;6280872;22;20061;-85
2023/11/30 19:24:24;;;;;;;22.83;16.65;;;;;;;;;;6308183;22;20003;-82
2023/11/30 19:26:50;;;;;;;20.38;14.68;;;;;;;;;;6307958;22;20006;-82
2023/11/30 19:29:15;;;;;;;20.30;15.30;;;;;;;;;;6280346;22;20065;-83
2023/11/30 19:31:41;;;;;;;22.17;15.48;;;;;;;;;;6280350;22;20003;-86
2023/11/30 19:34:06;;;;;;;23.35;16.63;;;;;;;;;;6307866;22;20033;-82
2023/11/30 19:36:32;;;;;;;20.88;15.27;;;;;;;;;;6280445;22;20007;-84
2023/11/30 19:38:57;;;;;;;19.92;14.95;;;;;;;;;;6307687;22;20010;-87
2023/11/30 19:41:22;;;;;;;18.10;13.10;;;;;;;;;;6280686;22;20020;-81
2023/11/30 19:43:49;;;;;;;16.25;11.80;;;;;;;;;;6307930;22;20080;-85
2023/11/30 19:46:15;;;;;;;13.05;10.63;;;;;;;;;;6280020;22;20086;-80
2023/11/30 19:48:42;;;;;;;13.98;10.20;;;;;;;;;;6307519;22;20014;-80
2023/11/30 19:51:07;;;;;;;15.98;10.93;;;;;;;;;;6307905;22;20003;-81
2023/11/30 19:53:33;;;;;;;16.55;9.93;;;;;;;;;;6280821;22;20082;-79
2023/11/30 19:55:58;;;;;;;13.32;10.15;;;;;;;;;;6308912;22;19999;-82
2023/11/30 19:58:24;;;;;;;15.05;10.10;;;;;;;;;;6310084;22;20011;-86
2023/11/30 20:00:51;;;;;;;14.18;10.70;;;;;;;;;;6310310;22;20004;-86
2023/11/30 20:03:16;;;;;;;14.82;11.15;;;;;;;;;;6310191;22;20004;-85
2023/11/30 20:05:42;;;;;;;14.02;10.48;;;;;;;;;;6310374;22;20011;-87
2023/11/30 20:08:07;;;;;;;14.27;10.50;;;;;;;;;;6282935;22;20010;-82
2023/11/30 20:10:33;;;;;;;15.43;10.90;;;;;;;;;;6310150;22;19999;-79
2023/11/30 20:12:58;;;;;;;16.40;10.65;;;;;;;;;;6282443;22;20000;-80
2023/11/30 20:15:24;;;;;;;16.42;11.80;;;;;;;;;;6309406;22;20026;-79
2023/11/30 20:17:49;;;;;;;14.60;11.25;;;;;;;;;;6310041;22;20030;-85
2023/11/30 20:20:15;;;;;;;13.93;10.77;;;;;;;;;;6309829;22;20406;-83
2023/11/30 20:22:41;;;;;;;18.65;11.73;;;;;;;;;;6282885;22;19999;-80
2023/11/30 20:25:07;;;;;;;15.55;11.48;;;;;;;;;;6310153;22;20008;-85
2023/11/30 20:27:33;;;;;;;15.43;11.55;;;;;;;;;;6309973;22;20426;-78
2023/11/30 20:29:58;;;;;;;17.50;11.85;;;;;;;;;;6310035;22;20003;-79
2023/11/30 20:32:24;;;;;;;17.15;12.05;;;;;;;;;;6309633;22;20007;-82
2023/11/30 20:34:49;;;;;;;14.85;10.98;;;;;;;;;;6282253;22;20074;-84
2023/11/30 20:37:15;;;;;;;17.23;11.90;;;;;;;;;;6282667;22;20061;-84
2023/11/30 20:39:41;;;;;;;16.58;11.93;;;;;;;;;;6282592;22;20003;-80
2023/11/30 20:42:06;;;;;;;15.45;10.75;;;;;;;;;;6282484;22;20321;-80
2023/11/30 20:44:32;;;;;;;18.88;12.27;;;;;;;;;;6282477;22;20003;-80
2023/11/30 20:46:57;;;;;;;17.75;12.27;;;;;;;;;;6282655;22;20033;-85
2023/11/30 20:49:22;;;;;;;15.23;10.70;;;;;;;;;;6309949;22;20071;-81
2023/11/30 20:51:48;;;;;;;19.48;11.95;;;;;;;;;;6282922;22;20010;-81
2023/11/30 20:54:13;;;;;;;15.68;11.43;;;;;;;;;;6309657;22;19999;-82
2023/11/30 20:56:39;;;;;;;19.10;12.35;;;;;;;;;;6309941;22;19996;-82
2023/11/30 20:59:05;;;;;;;15.43;11.23;;;;;;;;;;6281810;22;20468;-83
2023/11/30 21:01:31;;;;;;;16.85;12.30;;;;;;;;;;6309651;22;19995;-82
2023/11/30 21:03:56;;;;;;;15.13;11.02;;;;;;;;;;6282188;22;20006;-78
2023/11/30 21:06:22;;;;;;;13.25;10.95;;;;;;;;;;6309332;22;19999;-79
2023/11/30 21:08:47;;;;;;;17.02;11.43;;;;;;;;;;6309385;22;20003;-79
2023/11/30 21:11:13;;;;;;;16.42;10.48;;;;;;;;;;6309550;22;20468;-79
2023/11/30 21:13:39;;;;;;;17.10;11.60;;;;;;;;;;6309263;22;20007;-79
2023/11/30 21:16:06;;;;;;;18.83;11.82;;;;;;;;;;6282055;22;20007;-79
2023/11/30 21:18:33;;;;;;;17.60;11.23;;;;;;;;;;6309230;22;20030;-82
2023/11/30 21:20:58;;;;;;;17.90;12.48;;;;;;;;;;6282582;22;20003;-86
2023/11/30 21:23:24;;;;;;;16.40;11.35;;;;;;;;;;6282307;22;20012;-81
2023/11/30 21:25:49;;;;;;;16.48;10.98;;;;;;;;;;6282297;22;20433;-87
2023/11/30 21:28:15;;;;;;;18.20;12.10;;;;;;;;;;6309839;22;20061;-87
2023/11/30 21:30:40;;;;;;;15.73;11.25;;;;;;;;;;6310115;22;20003;-81
2023/11/30 21:33:06;;;;;;;18.15;12.38;;;;;;;;;;6282294;22;20007;-83
2023/11/30 21:35:33;;;;;;;16.23;11.52;;;;;;;;;;6256686;22;20019;-85
2023/11/30 21:37:59;;;;;;;17.17;12.20;;;;;;;;;;6282715;22;20445;-84
2023/11/30 21:40:24;;;;;;;17.30;11.45;;;;;;;;;;6309883;22;20003;-82
2023/11/30 21:42:49;;;;;;;16.50;11.70;;;;;;;;;;6282367;22;20011;-84
2023/11/30 21:45:15;;;;;;;16.73;12.18;;;;;;;;;;6282039;22;20007;-81
2023/11/30 21:47:40;;;;;;;19.55;12.27;;;;;;;;;;6309638;22;20063;-82
2023/11/30 21:50:17;;;;;;;14.02;10.55;;;;;;;;;;6281859;22;20010;-82
2023/11/30 21:52:46;;;;;;;18.48;11.75;;;;;;;;;;6282281;22;20308;-83
2023/11/30 21:55:12;;;;;;;17.25;11.40;;;;;;;;;;6281715;22;20113;-81
2023/11/30 21:57:40;;;;;;;15.48;11.73;;;;;;;;;;6282131;22;20513;-87
2023/11/30 22:00:08;;;;;;;18.48;12.63;;;;;;;;;;6309210;22;20035;-85
2023/11/30 22:02:34;;;;;;;17.27;11.43;;;;;;;;;;6309285;22;20006;-84
2023/11/30 22:04:59;;;;;;;18.83;12.98;;;;;;;;;;6281160;22;19999;-84
2023/11/30 22:07:24;;;;;;;18.10;11.77;;;;;;;;;;6281951;22;20011;-84
2023/11/30 22:09:50;;;;;;;16.88;12.10;;;;;;;;;;6282102;22;20411;-83
2023/11/30 22:12:15;;;;;;;19.98;13.90;;;;;;;;;;6308848;22;20094;-85
2023/11/30 22:14:41;;;;;;;18.25;12.35;;;;;;;;;;6281744;22;20014;-84
2023/11/30 22:17:06;;;;;;;18.80;13.80;;;;;;;;;;6281784;22;20338;-83
2023/11/30 22:19:32;;;;;;;17.20;11.85;;;;;;;;;;6281219;22;20010;-85
2023/11/30 22:21:57;;;;;;;20.75;13.38;;;;;;;;;;6281942;22;20003;-83
2023/11/30 22:24:23;;;;;;;18.58;13.38;;;;;;;;;;6309649;22;20004;-91
2023/11/30 22:26:48;;;;;;;18.85;13.20;;;;;;;;;;6282180;22;20003;-85
2023/11/30 22:29:13;;;;;;;17.75;12.63;;;;;;;;;;6308566;22;20082;-84
2023/11/30 22:31:39;;;;;;;20.27;12.43;;;;;;;;;;6308949;22;20026;-86
2023/11/30 22:34:04;;;;;;;20.52;13.88;;;;;;;;;;6281580;22;20008;-82
2023/11/30 22:36:30;;;;;;;19.92;13.30;;;;;;;;;;6308187;22;20011;-81
2023/11/30 22:38:55;;;;;;;18.73;12.85;;;;;;;;;;6281560;22;20003;-81
2023/11/30 22:41:21;;;;;;;18.02;12.45;;;;;;;;;;6309033;22;20079;-85
2023/11/30 22:43:46;;;;;;;18.73;12.25;;;;;;;;;;6308856;22;20006;-87
2023/11/30 22:46:18;;;;;;;18.35;12.85;;;;;;;;;;6281428;22;20089;-84
2023/11/30 22:48:50;;;;;;;17.05;12.45;;;;;;;;;;6308784;22;20003;-85
2023/11/30 22:51:16;;;;;;;20.35;14.00;;;;;;;;;;6281426;22;20376;-82
2023/11/30 22:53:42;;;;;;;19.02;12.63;;;;;;;;;;6308553;22;20102;-85
2023/11/30 22:56:15;;;;;;;18.63;12.50;;;;;;;;;;6308665;22;20003;-84
2023/11/30 22:58:40;;;;;;;20.60;13.73;;;;;;;;;;6308821;22;20346;-88
2023/11/30 23:01:05;;;;;;;19.92;13.40;;;;;;;;;;6308589;22;20003;-85
2023/11/30 23:03:31;;;;;;;19.70;12.68;;;;;;;;;;6308016;22;20414;-86
2023/11/30 23:05:56;;;;;;;22.48;14.27;;;;;;;;;;6281020;22;20007;-81
2023/11/30 23:08:22;;;;;;;19.35;14.02;;;;;;;;;;6281440;22;20089;-84
2023/11/30 23:10:47;;;;;;;20.58;13.70;;;;;;;;;;6281512;22;20011;-87
2023/11/30 23:13:13;;;;;;;21.35;13.95;;;;;;;;;;6281445;22;20418;-83
2023/11/30 23:15:38;;;;;;;20.70;12.95;;;;;;;;;;6308331;22;20079;-83
2023/11/30 23:18:03;;;;;;;18.77;13.55;;;;;;;;;;6281321;22;20003;-85
